sensor_id;sensor_type;location;lat;lon;timestamp;pressure;altitude;pressure_sealevel;temperature;humidity
46942;BME280;32676;52.630;4.896;2023-06-26T00:01:43;100466.25;;;24.71;60.81
46942;BME280;32676;52.630;4.896;2023-06-26T00:04:10;100435.91;;;24.61;61.44
46942;BME280;32676;52.630;4.896;2023-06-26T00:06:39;100429.56;;;24.62;61.41
46942;BME280;32676;52.630;4.896;2023-06-26T00:09:06;100417.41;;;24.58;61.17
46942;BME280;32676;52.630;4.896;2023-06-26T00:11:32;100388.72;;;24.48;61.27
46942;BME280;32676;52.630;4.896;2023-06-26T00:13:59;100352.72;;;24.41;61.37
46942;BME280;32676;52.630;4.896;2023-06-26T00:16:27;100350.19;;;24.40;61.62
46942;BME280;32676;52.630;4.896;2023-06-26T00:18:56;100330.16;;;24.34;61.38
46942;BME280;32676;52.630;4.896;2023-06-26T00:21:23;100310.97;;;24.29;61.62
46942;BME280;32676;52.630;4.896;2023-06-26T00:23:50;100320.84;;;24.28;60.82
46942;BME280;32676;52.630;4.896;2023-06-26T00:26:16;100307.75;;;24.25;59.98
46942;BME280;32676;52.630;4.896;2023-06-26T00:28:43;100295.44;;;24.23;58.28
46942;BME280;32676;52.630;4.896;2023-06-26T00:31:09;100280.66;;;24.19;57.70
46942;BME280;32676;52.630;4.896;2023-06-26T00:33:37;100273.59;;;24.18;58.30
46942;BME280;32676;52.630;4.896;2023-06-26T00:36:04;100250.03;;;24.11;57.84
46942;BME280;32676;52.630;4.896;2023-06-26T00:38:30;100224.66;;;24.06;58.32
46942;BME280;32676;52.630;4.896;2023-06-26T00:40:57;100217.91;;;24.02;58.15
46942;BME280;32676;52.630;4.896;2023-06-26T00:43:23;100175.94;;;23.83;58.23
46942;BME280;32676;52.630;4.896;2023-06-26T00:45:50;100195.88;;;23.98;58.87
46942;BME280;32676;52.630;4.896;2023-06-26T00:48:16;100166.59;;;23.87;58.61
46942;BME280;32676;52.630;4.896;2023-06-26T00:50:45;100154.16;;;23.86;59.33
46942;BME280;32676;52.630;4.896;2023-06-26T00:53:11;100142.75;;;23.84;58.94
46942;BME280;32676;52.630;4.896;2023-06-26T00:55:38;100142.06;;;23.82;59.23
46942;BME280;32676;52.630;4.896;2023-06-26T00:58:05;100137.78;;;23.79;59.49
46942;BME280;32676;52.630;4.896;2023-06-26T01:00:31;100114.41;;;23.71;59.65
46942;BME280;32676;52.630;4.896;2023-06-26T01:02:58;100102.00;;;23.70;60.10
46942;BME280;32676;52.630;4.896;2023-06-26T01:05:25;100062.66;;;23.61;59.89
46942;BME280;32676;52.630;4.896;2023-06-26T01:07:53;100041.81;;;23.55;60.49
46942;BME280;32676;52.630;4.896;2023-06-26T01:10:20;100011.25;;;23.48;60.52
46942;BME280;32676;52.630;4.896;2023-06-26T01:12:47;99983.66;;;23.37;60.74
46942;BME280;32676;52.630;4.896;2023-06-26T01:15:13;99954.78;;;23.31;61.53
46942;BME280;32676;52.630;4.896;2023-06-26T01:17:40;99914.69;;;23.22;61.49
46942;BME280;32676;52.630;4.896;2023-06-26T01:20:10;99896.38;;;23.17;61.82
46942;BME280;32676;52.630;4.896;2023-06-26T01:22:42;99873.84;;;23.10;62.64
46942;BME280;32676;52.630;4.896;2023-06-26T01:25:29;99840.59;;;23.03;62.98
46942;BME280;32676;52.630;4.896;2023-06-26T01:28:05;99816.44;;;22.94;63.12
46942;BME280;32676;52.630;4.896;2023-06-26T01:30:32;99800.66;;;22.91;63.71
46942;BME280;32676;52.630;4.896;2023-06-26T01:33:01;99777.31;;;22.84;63.64
46942;BME280;32676;52.630;4.896;2023-06-26T01:35:28;99766.06;;;22.80;64.12
46942;BME280;32676;52.630;4.896;2023-06-26T01:38:13;99733.19;;;22.70;64.67
46942;BME280;32676;52.630;4.896;2023-06-26T01:40:40;99704.34;;;22.64;64.88
46942;BME280;32676;52.630;4.896;2023-06-26T01:43:15;99665.41;;;22.51;64.78
46942;BME280;32676;52.630;4.896;2023-06-26T01:45:46;99626.88;;;22.44;65.26
46942;BME280;32676;52.630;4.896;2023-06-26T01:48:16;99609.47;;;22.40;65.81
46942;BME280;32676;52.630;4.896;2023-06-26T01:50:44;99611.75;;;22.35;65.65
46942;BME280;32676;52.630;4.896;2023-06-26T01:53:12;99600.22;;;22.34;65.83
46942;BME280;32676;52.630;4.896;2023-06-26T01:55:46;99589.81;;;22.31;65.84
46942;BME280;32676;52.630;4.896;2023-06-26T01:58:14;99556.09;;;22.20;66.60
46942;BME280;32676;52.630;4.896;2023-06-26T02:00:42;99529.09;;;22.14;66.46
46942;BME280;32676;52.630;4.896;2023-06-26T02:03:09;99530.25;;;22.11;66.87
46942;BME280;32676;52.630;4.896;2023-06-26T02:05:36;99528.56;;;22.10;66.59
46942;BME280;32676;52.630;4.896;2023-06-26T02:08:02;99531.97;;;22.12;67.09
46942;BME280;32676;52.630;4.896;2023-06-26T02:10:29;99525.22;;;22.08;66.40
46942;BME280;32676;52.630;4.896;2023-06-26T02:12:56;99494.91;;;21.99;66.68
46942;BME280;32676;52.630;4.896;2023-06-26T02:15:23;99483.69;;;21.96;66.82
46942;BME280;32676;52.630;4.896;2023-06-26T02:17:50;99465.41;;;21.91;67.24
46942;BME280;32676;52.630;4.896;2023-06-26T02:20:17;99445.50;;;21.85;66.89
46942;BME280;32676;52.630;4.896;2023-06-26T02:22:43;99435.09;;;21.82;67.32
46942;BME280;32676;52.630;4.896;2023-06-26T02:25:10;99416.13;;;21.67;67.10
46942;BME280;32676;52.630;4.896;2023-06-26T02:27:37;99435.44;;;21.79;67.43
46942;BME280;32676;52.630;4.896;2023-06-26T02:30:04;99417.00;;;21.76;67.71
46942;BME280;32676;52.630;4.896;2023-06-26T02:32:33;99405.94;;;21.71;67.80
46942;BME280;32676;52.630;4.896;2023-06-26T02:34:59;99399.25;;;21.67;67.71
46942;BME280;32676;52.630;4.896;2023-06-26T02:37:25;99380.00;;;21.63;67.80
46942;BME280;32676;52.630;4.896;2023-06-26T02:39:52;99361.06;;;21.57;67.71
46942;BME280;32676;52.630;4.896;2023-06-26T02:42:18;99349.00;;;21.53;67.83
46942;BME280;32676;52.630;4.896;2023-06-26T02:44:45;99341.97;;;21.52;68.04
46942;BME280;32676;52.630;4.896;2023-06-26T02:47:11;99331.94;;;21.45;68.18
46942;BME280;32676;52.630;4.896;2023-06-26T02:49:39;99362.53;;;21.51;67.82
46942;BME280;32676;52.630;4.896;2023-06-26T02:52:06;99368.41;;;21.55;67.85
46942;BME280;32676;52.630;4.896;2023-06-26T02:54:32;99354.81;;;21.48;68.06
46942;BME280;32676;52.630;4.896;2023-06-26T02:56:59;99358.34;;;21.49;68.37
46942;BME280;32676;52.630;4.896;2023-06-26T02:59:25;99347.13;;;21.45;68.48
46942;BME280;32676;52.630;4.896;2023-06-26T03:01:52;99327.19;;;21.39;68.47
46942;BME280;32676;52.630;4.896;2023-06-26T03:04:18;99318.47;;;21.37;68.83
46942;BME280;32676;52.630;4.896;2023-06-26T03:06:47;99314.28;;;21.35;69.06
46942;BME280;32676;52.630;4.896;2023-06-26T03:09:14;99306.41;;;21.33;69.26
46942;BME280;32676;52.630;4.896;2023-06-26T03:11:41;99327.50;;;21.36;68.95
46942;BME280;32676;52.630;4.896;2023-06-26T03:14:08;99325.81;;;21.35;68.79
46942;BME280;32676;52.630;4.896;2023-06-26T03:16:34;99307.72;;;21.29;69.30
46942;BME280;32676;52.630;4.896;2023-06-26T03:19:00;99296.66;;;21.24;69.48
46942;BME280;32676;52.630;4.896;2023-06-26T03:21:27;99284.47;;;21.21;69.43
46942;BME280;32676;52.630;4.896;2023-06-26T03:23:55;99271.56;;;21.17;69.56
46942;BME280;32676;52.630;4.896;2023-06-26T03:26:21;99264.72;;;21.14;69.38
46942;BME280;32676;52.630;4.896;2023-06-26T03:28:52;99263.84;;;21.14;69.45
46942;BME280;32676;52.630;4.896;2023-06-26T03:31:19;99268.38;;;21.13;69.24
46942;BME280;32676;52.630;4.896;2023-06-26T03:33:45;99272.06;;;21.12;68.98
46942;BME280;32676;52.630;4.896;2023-06-26T03:36:12;99259.84;;;21.09;69.18
46942;BME280;32676;52.630;4.896;2023-06-26T03:38:38;99221.72;;;20.99;68.71
46942;BME280;32676;52.630;4.896;2023-06-26T03:41:06;99216.69;;;20.96;68.71
46942;BME280;32676;52.630;4.896;2023-06-26T03:43:33;99224.53;;;20.98;68.85
46942;BME280;32676;52.630;4.896;2023-06-26T03:45:59;99200.28;;;20.91;68.72
46942;BME280;32676;52.630;4.896;2023-06-26T03:48:25;99203.94;;;20.90;68.76
46942;BME280;32676;52.630;4.896;2023-06-26T03:50:53;99202.28;;;20.89;68.66
46942;BME280;32676;52.630;4.896;2023-06-26T03:53:19;99226.69;;;20.94;68.25
46942;BME280;32676;52.630;4.896;2023-06-26T03:55:46;99259.78;;;21.01;67.93
46942;BME280;32676;52.630;4.896;2023-06-26T03:58:13;99284.19;;;21.06;67.74
46942;BME280;32676;52.630;4.896;2023-06-26T04:00:40;99322.63;;;21.14;67.52
46942;BME280;32676;52.630;4.896;2023-06-26T04:03:07;99322.63;;;21.14;66.92
46942;BME280;32676;52.630;4.896;2023-06-26T04:05:34;99327.97;;;21.14;67.06
46942;BME280;32676;52.630;4.896;2023-06-26T04:08:01;99323.78;;;21.11;67.19
46942;BME280;32676;52.630;4.896;2023-06-26T04:10:27;99345.53;;;21.16;67.19
46942;BME280;32676;52.630;4.896;2023-06-26T04:12:54;99347.38;;;21.16;67.13
46942;BME280;32676;52.630;4.896;2023-06-26T04:15:22;99342.34;;;21.13;67.02
46942;BME280;32676;52.630;4.896;2023-06-26T04:17:48;99352.72;;;21.16;66.91
46942;BME280;32676;52.630;4.896;2023-06-26T04:20:15;99358.06;;;21.16;66.97
46942;BME280;32676;52.630;4.896;2023-06-26T04:22:42;99385.00;;;21.22;66.84
46942;BME280;32676;52.630;4.896;2023-06-26T04:25:08;99406.22;;;21.24;66.53
46942;BME280;32676;52.630;4.896;2023-06-26T04:27:37;99400.19;;;21.22;66.47
46942;BME280;32676;52.630;4.896;2023-06-26T04:30:04;99388.13;;;21.18;65.94
46942;BME280;32676;52.630;4.896;2023-06-26T04:32:32;99378.44;;;21.17;65.96
46942;BME280;32676;52.630;4.896;2023-06-26T04:34:58;99386.44;;;21.17;65.92
46942;BME280;32676;52.630;4.896;2023-06-26T04:37:25;99435.31;;;21.27;66.00
46942;BME280;32676;52.630;4.896;2023-06-26T04:39:52;99463.38;;;21.31;65.79
46942;BME280;32676;52.630;4.896;2023-06-26T04:42:18;99499.88;;;21.40;65.34
46942;BME280;32676;52.630;4.896;2023-06-26T04:44:47;99530.38;;;21.47;65.31
46942;BME280;32676;52.630;4.896;2023-06-26T04:47:13;99581.97;;;21.58;64.73
46942;BME280;32676;52.630;4.896;2023-06-26T04:49:41;99642.94;;;21.72;64.13
46942;BME280;32676;52.630;4.896;2023-06-26T04:52:11;99689.16;;;21.82;63.36
46942;BME280;32676;52.630;4.896;2023-06-26T04:54:38;99691.84;;;21.82;63.69
46942;BME280;32676;52.630;4.896;2023-06-26T04:57:05;99696.22;;;21.83;63.92
46942;BME280;32676;52.630;4.896;2023-06-26T04:59:31;99714.63;;;21.87;64.23
46942;BME280;32676;52.630;4.896;2023-06-26T05:01:58;99766.91;;;21.99;64.24
46942;BME280;32676;52.630;4.896;2023-06-26T05:04:24;99803.09;;;22.03;63.89
46942;BME280;32676;52.630;4.896;2023-06-26T05:06:52;99809.13;;;22.05;63.86
46942;BME280;32676;52.630;4.896;2023-06-26T05:09:19;99836.13;;;22.12;63.70
46942;BME280;32676;52.630;4.896;2023-06-26T05:11:45;99858.06;;;22.15;63.52
46942;BME280;32676;52.630;4.896;2023-06-26T05:14:12;99895.66;;;22.23;63.23
46942;BME280;32676;52.630;4.896;2023-06-26T05:16:38;99913.13;;;22.28;62.88
46942;BME280;32676;52.630;4.896;2023-06-26T05:19:05;99939.28;;;22.34;62.96
46942;BME280;32676;52.630;4.896;2023-06-26T05:21:32;99973.38;;;22.41;62.03
46942;BME280;32676;52.630;4.896;2023-06-26T05:24:02;99995.34;;;22.45;62.27
46942;BME280;32676;52.630;4.896;2023-06-26T05:26:30;100024.19;;;22.51;61.92
46942;BME280;32676;52.630;4.896;2023-06-26T05:28:57;100052.50;;;22.54;61.96
46942;BME280;32676;52.630;4.896;2023-06-26T05:31:24;100071.53;;;22.60;61.17
46942;BME280;32676;52.630;4.896;2023-06-26T05:33:51;100096.72;;;22.68;61.48
46942;BME280;32676;52.630;4.896;2023-06-26T05:36:22;100129.28;;;22.73;60.93
46942;BME280;32676;52.630;4.896;2023-06-26T05:38:50;100145.06;;;22.76;61.06
46942;BME280;32676;52.630;4.896;2023-06-26T05:41:18;100163.38;;;22.80;61.55
46942;BME280;32676;52.630;4.896;2023-06-26T05:43:45;100142.53;;;22.74;61.46
46942;BME280;32676;52.630;4.896;2023-06-26T05:46:11;100145.06;;;22.76;61.82
46942;BME280;32676;52.630;4.896;2023-06-26T05:48:38;100168.03;;;22.78;61.81
46942;BME280;32676;52.630;4.896;2023-06-26T05:51:06;100179.31;;;22.82;62.10
46942;BME280;32676;52.630;4.896;2023-06-26T05:53:33;100182.56;;;22.76;61.38
46942;BME280;32676;52.630;4.896;2023-06-26T05:56:00;100198.63;;;22.86;61.45
46942;BME280;32676;52.630;4.896;2023-06-26T05:58:28;100263.44;;;22.99;60.93
46942;BME280;32676;52.630;4.896;2023-06-26T06:00:56;100281.78;;;23.04;60.68
46942;BME280;32676;52.630;4.896;2023-06-26T06:03:23;100287.16;;;23.04;60.64
46942;BME280;32676;52.630;4.896;2023-06-26T06:05:49;100326.38;;;23.14;60.48
46942;BME280;32676;52.630;4.896;2023-06-26T06:08:16;100346.69;;;23.17;60.47
46942;BME280;32676;52.630;4.896;2023-06-26T06:10:42;100361.66;;;23.19;60.75
46942;BME280;32676;52.630;4.896;2023-06-26T06:13:08;100362.75;;;23.17;60.41
46942;BME280;32676;52.630;4.896;2023-06-26T06:15:36;100375.75;;;23.22;60.62
46942;BME280;32676;52.630;4.896;2023-06-26T06:18:03;100394.06;;;23.26;60.72
46942;BME280;32676;52.630;4.896;2023-06-26T06:20:30;100439.50;;;23.37;60.73
46942;BME280;32676;52.630;4.896;2023-06-26T06:22:56;100452.22;;;23.35;60.44
46942;BME280;32676;52.630;4.896;2023-06-26T06:25:23;100473.13;;;23.42;59.94
46942;BME280;32676;52.630;4.896;2023-06-26T06:27:49;100495.97;;;23.46;59.36
46942;BME280;32676;52.630;4.896;2023-06-26T06:30:15;100521.38;;;23.51;59.88
46942;BME280;32676;52.630;4.896;2023-06-26T06:32:43;100534.38;;;23.56;59.95
46942;BME280;32676;52.630;4.896;2023-06-26T06:35:11;100545.09;;;23.56;59.51
46942;BME280;32676;52.630;4.896;2023-06-26T06:37:38;100560.63;;;23.62;59.00
46942;BME280;32676;52.630;4.896;2023-06-26T06:40:05;100566.00;;;23.62;58.63
46942;BME280;32676;52.630;4.896;2023-06-26T06:42:32;100576.44;;;23.65;59.37
46942;BME280;32676;52.630;4.896;2023-06-26T06:44:59;100560.06;;;23.58;59.19
46942;BME280;32676;52.630;4.896;2023-06-26T06:47:26;100545.09;;;23.56;59.74
46942;BME280;32676;52.630;4.896;2023-06-26T06:49:53;100464.63;;;23.36;60.01
46942;BME280;32676;52.630;4.896;2023-06-26T06:52:20;100454.88;;;23.35;60.22
46942;BME280;32676;52.630;4.896;2023-06-26T06:54:51;100449.69;;;23.34;60.38
46942;BME280;32676;52.630;4.896;2023-06-26T06:57:18;100462.94;;;23.35;60.22
46942;BME280;32676;52.630;4.896;2023-06-26T06:59:44;100494.56;;;23.42;60.17
46942;BME280;32676;52.630;4.896;2023-06-26T07:02:11;100514.75;;;23.46;59.75
46942;BME280;32676;52.630;4.896;2023-06-26T07:04:37;100566.25;;;23.59;59.92
46942;BME280;32676;52.630;4.896;2023-06-26T07:07:05;100584.63;;;23.64;59.69
46942;BME280;32676;52.630;4.896;2023-06-26T07:09:32;100571.34;;;23.62;59.06
46942;BME280;32676;52.630;4.896;2023-06-26T07:11:58;100578.97;;;23.57;59.33
46942;BME280;32676;52.630;4.896;2023-06-26T07:14:25;100591.84;;;23.63;59.03
46942;BME280;32676;52.630;4.896;2023-06-26T07:16:52;100605.81;;;23.67;59.52
46942;BME280;32676;52.630;4.896;2023-06-26T07:19:18;100652.41;;;23.75;58.75
46942;BME280;32676;52.630;4.896;2023-06-26T07:21:44;100676.06;;;23.82;58.34
46942;BME280;32676;52.630;4.896;2023-06-26T07:24:13;100671.66;;;23.81;58.15
46942;BME280;32676;52.630;4.896;2023-06-26T07:26:40;100677.88;;;23.81;58.45
46942;BME280;32676;52.630;4.896;2023-06-26T07:29:06;100634.91;;;23.71;58.19
46942;BME280;32676;52.630;4.896;2023-06-26T07:31:33;100599.88;;;23.63;58.31
46942;BME280;32676;52.630;4.896;2023-06-26T07:34:00;100542.97;;;23.50;58.39
46942;BME280;32676;52.630;4.896;2023-06-26T07:36:26;100528.16;;;23.46;58.23
46942;BME280;32676;52.630;4.896;2023-06-26T07:38:53;100550.03;;;23.51;58.11
46942;BME280;32676;52.630;4.896;2023-06-26T07:41:21;100587.72;;;23.59;57.85
46942;BME280;32676;52.630;4.896;2023-06-26T07:43:47;100571.94;;;23.56;56.88
46942;BME280;32676;52.630;4.896;2023-06-26T07:46:13;100603.53;;;23.62;56.34
46942;BME280;32676;52.630;4.896;2023-06-26T07:48:40;100622.75;;;23.67;56.16
46942;BME280;32676;52.630;4.896;2023-06-26T07:51:06;100622.75;;;23.67;55.36
46942;BME280;32676;52.630;4.896;2023-06-26T07:53:33;100588.59;;;23.60;55.23
46942;BME280;32676;52.630;4.896;2023-06-26T07:56:00;100537.03;;;23.46;55.16
46942;BME280;32676;52.630;4.896;2023-06-26T07:58:27;100575.59;;;23.55;55.65
46942;BME280;32676;52.630;4.896;2023-06-26T08:00:54;100669.22;;;23.77;56.51
46942;BME280;32676;52.630;4.896;2023-06-26T08:03:20;100753.47;;;23.96;55.80
46942;BME280;32676;52.630;4.896;2023-06-26T08:05:48;100817.53;;;24.10;55.05
46942;BME280;32676;52.630;4.896;2023-06-26T08:08:15;100896.44;;;24.29;54.60
46942;BME280;32676;52.630;4.896;2023-06-26T08:10:41;100990.47;;;24.48;54.15
46942;BME280;32676;52.630;4.896;2023-06-26T08:13:08;101009.75;;;24.53;53.56
46942;BME280;32676;52.630;4.896;2023-06-26T08:15:36;100990.47;;;24.48;53.69
46942;BME280;32676;52.630;4.896;2023-06-26T08:18:03;100986.81;;;24.49;53.55
46942;BME280;32676;52.630;4.896;2023-06-26T08:20:29;101079.00;;;24.71;53.61
46942;BME280;32676;52.630;4.896;2023-06-26T08:22:56;101105.63;;;24.74;53.10
46942;BME280;32676;52.630;4.896;2023-06-26T08:25:22;101105.31;;;24.77;53.02
46942;BME280;32676;52.630;4.896;2023-06-26T08:27:48;101065.81;;;24.68;52.49
46942;BME280;32676;52.630;4.896;2023-06-26T08:30:17;101063.41;;;24.65;52.08
46942;BME280;32676;52.630;4.896;2023-06-26T08:32:45;101090.59;;;24.71;52.22
46942;BME280;32676;52.630;4.896;2023-06-26T08:35:12;101144.13;;;24.84;52.46
46942;BME280;32676;52.630;4.896;2023-06-26T08:37:38;101085.22;;;24.71;51.55
46942;BME280;32676;52.630;4.896;2023-06-26T08:40:06;100992.91;;;24.51;51.81
46942;BME280;32676;52.630;4.896;2023-06-26T08:42:33;101007.06;;;24.53;52.87
46942;BME280;32676;52.630;4.896;2023-06-26T08:45:00;100999.09;;;24.52;53.01
46942;BME280;32676;52.630;4.896;2023-06-26T08:47:26;100931.50;;;24.37;52.49
46942;BME280;32676;52.630;4.896;2023-06-26T08:50:01;100936.84;;;24.37;52.22
46942;BME280;32676;52.630;4.896;2023-06-26T08:52:33;100920.31;;;24.32;52.70
46942;BME280;32676;52.630;4.896;2023-06-26T08:55:02;100945.63;;;24.39;52.82
46942;BME280;32676;52.630;4.896;2023-06-26T08:57:33;101017.56;;;24.57;52.70
46942;BME280;32676;52.630;4.896;2023-06-26T09:00:00;101064.13;;;24.67;52.18
46942;BME280;32676;52.630;4.896;2023-06-26T09:02:27;101093.16;;;24.73;52.54
46942;BME280;32676;52.630;4.896;2023-06-26T09:04:56;101110.69;;;24.77;52.43
46942;BME280;32676;52.630;4.896;2023-06-26T09:07:22;101075.59;;;24.69;52.19
46942;BME280;32676;52.630;4.896;2023-06-26T09:09:49;101088.00;;;24.60;51.58
46942;BME280;32676;52.630;4.896;2023-06-26T09:12:15;101103.63;;;24.76;50.09
46942;BME280;32676;52.630;4.896;2023-06-26T09:14:42;101087.06;;;24.71;49.94
46942;BME280;32676;52.630;4.896;2023-06-26T09:17:09;101072.91;;;24.69;50.30
46942;BME280;32676;52.630;4.896;2023-06-26T09:19:36;101086.06;;;24.72;50.54
46942;BME280;32676;52.630;4.896;2023-06-26T09:22:11;101059.72;;;24.66;50.58
46942;BME280;32676;52.630;4.896;2023-06-26T09:24:38;101063.41;;;24.65;50.36
46942;BME280;32676;52.630;4.896;2023-06-26T09:27:05;101093.16;;;24.73;50.06
46942;BME280;32676;52.630;4.896;2023-06-26T09:29:32;101092.19;;;24.74;49.98
46942;BME280;32676;52.630;4.896;2023-06-26T09:31:59;101108.72;;;24.79;50.20
46942;BME280;32676;52.630;4.896;2023-06-26T09:34:30;101117.53;;;24.81;50.59
46942;BME280;32676;52.630;4.896;2023-06-26T09:36:58;101150.78;;;24.90;50.09
46942;BME280;32676;52.630;4.896;2023-06-26T09:39:29;101194.00;;;24.98;49.25
46942;BME280;32676;52.630;4.896;2023-06-26T09:41:56;101186.19;;;24.95;49.35
46942;BME280;32676;52.630;4.896;2023-06-26T09:44:24;101148.22;;;24.88;49.96
46942;BME280;32676;52.630;4.896;2023-06-26T09:46:50;101128.00;;;24.84;50.74
46942;BME280;32676;52.630;4.896;2023-06-26T09:49:17;101138.75;;;24.84;50.69
46942;BME280;32676;52.630;4.896;2023-06-26T09:51:43;101159.72;;;24.90;51.11
46942;BME280;32676;52.630;4.896;2023-06-26T09:54:10;101184.34;;;24.96;50.95
46942;BME280;32676;52.630;4.896;2023-06-26T09:56:38;101176.28;;;24.96;50.12
46942;BME280;32676;52.630;4.896;2023-06-26T09:59:05;101165.81;;;24.93;49.61
46942;BME280;32676;52.630;4.896;2023-06-26T10:01:32;101174.47;;;24.96;50.09
46942;BME280;32676;52.630;4.896;2023-06-26T10:03:59;101165.81;;;24.93;50.16
46942;BME280;32676;52.630;4.896;2023-06-26T10:06:28;101162.41;;;24.90;50.24
46942;BME280;32676;52.630;4.896;2023-06-26T10:08:58;101190.47;;;24.98;50.75
46942;BME280;32676;52.630;4.896;2023-06-26T10:11:30;101186.06;;;24.97;50.59
46942;BME280;32676;52.630;4.896;2023-06-26T10:14:03;101125.59;;;24.81;49.83
46942;BME280;32676;52.630;4.896;2023-06-26T10:16:31;101035.94;;;24.61;50.10
46942;BME280;32676;52.630;4.896;2023-06-26T10:19:03;101015.56;;;24.59;50.31
46942;BME280;32676;52.630;4.896;2023-06-26T10:21:32;101020.94;;;24.59;51.12
46942;BME280;32676;52.630;4.896;2023-06-26T10:24:00;101019.09;;;24.59;51.80
46942;BME280;32676;52.630;4.896;2023-06-26T10:26:30;101032.41;;;24.61;51.27
46942;BME280;32676;52.630;4.896;2023-06-26T10:28:58;101041.31;;;24.61;50.85
46942;BME280;32676;52.630;4.896;2023-06-26T10:31:28;101001.69;;;24.53;50.28
46942;BME280;32676;52.630;4.896;2023-06-26T10:33:55;101058.91;;;24.65;51.00
46942;BME280;32676;52.630;4.896;2023-06-26T10:36:29;101096.53;;;24.75;50.77
46942;BME280;32676;52.630;4.896;2023-06-26T10:38:56;101100.94;;;24.76;50.33
46942;BME280;32676;52.630;4.896;2023-06-26T10:41:24;101107.03;;;24.78;50.64
46942;BME280;32676;52.630;4.896;2023-06-26T10:43:51;101138.75;;;24.84;50.21
46942;BME280;32676;52.630;4.896;2023-06-26T10:46:48;101086.06;;;24.72;50.45
46942;BME280;32676;52.630;4.896;2023-06-26T10:49:14;101058.75;;;24.67;50.40
46942;BME280;32676;52.630;4.896;2023-06-26T10:51:46;101045.84;;;24.61;50.08
46942;BME280;32676;52.630;4.896;2023-06-26T10:54:14;101052.06;;;24.61;50.17
46942;BME280;32676;52.630;4.896;2023-06-26T10:56:42;101076.56;;;24.68;49.41
46942;BME280;32676;52.630;4.896;2023-06-26T10:59:17;101095.69;;;24.75;49.64
46942;BME280;32676;52.630;4.896;2023-06-26T11:01:46;101147.50;;;24.86;49.49
46942;BME280;32676;52.630;4.896;2023-06-26T11:04:13;101234.63;;;25.05;49.42
46942;BME280;32676;52.630;4.896;2023-06-26T11:06:45;101247.56;;;25.11;49.65
46942;BME280;32676;52.630;4.896;2023-06-26T11:09:15;101299.56;;;25.21;49.23
46942;BME280;32676;52.630;4.896;2023-06-26T11:11:58;101402.38;;;25.46;49.36
46942;BME280;32676;52.630;4.896;2023-06-26T11:14:27;101391.88;;;25.43;48.84
46942;BME280;32676;52.630;4.896;2023-06-26T11:16:56;101285.38;;;25.19;47.88
46942;BME280;32676;52.630;4.896;2023-06-26T11:19:25;101260.88;;;25.13;48.38
46942;BME280;32676;52.630;4.896;2023-06-26T11:21:58;101270.50;;;25.15;48.37
46942;BME280;32676;52.630;4.896;2023-06-26T11:24:25;101238.78;;;25.09;48.75
46942;BME280;32676;52.630;4.896;2023-06-26T11:26:52;101266.13;;;25.14;49.08
46942;BME280;32676;52.630;4.896;2023-06-26T11:29:18;101242.44;;;25.08;48.99
46942;BME280;32676;52.630;4.896;2023-06-26T11:31:45;101175.56;;;24.94;49.59
46942;BME280;32676;52.630;4.896;2023-06-26T11:34:13;101165.09;;;24.90;49.85
46942;BME280;32676;52.630;4.896;2023-06-26T11:36:41;101168.50;;;24.93;49.50
46942;BME280;32676;52.630;4.896;2023-06-26T11:39:11;101206.44;;;24.99;49.16
46942;BME280;32676;52.630;4.896;2023-06-26T11:41:40;101191.44;;;24.97;48.86
46942;BME280;32676;52.630;4.896;2023-06-26T11:44:07;101094.88;;;24.74;48.77
46942;BME280;32676;52.630;4.896;2023-06-26T11:46:35;101036.94;;;24.60;48.71
46942;BME280;32676;52.630;4.896;2023-06-26T11:49:03;101001.97;;;24.50;49.40
46942;BME280;32676;52.630;4.896;2023-06-26T11:51:31;100939.53;;;24.37;49.36
46942;BME280;32676;52.630;4.896;2023-06-26T11:54:00;100873.78;;;24.22;49.83
46942;BME280;32676;52.630;4.896;2023-06-26T11:56:28;100837.88;;;24.13;50.49
46942;BME280;32676;52.630;4.896;2023-06-26T11:58:59;100844.06;;;24.13;51.03
46942;BME280;32676;52.630;4.896;2023-06-26T12:01:27;100877.44;;;24.21;51.23
46942;BME280;32676;52.630;4.896;2023-06-26T12:03:58;100935.19;;;24.36;51.42
46942;BME280;32676;52.630;4.896;2023-06-26T12:06:25;100933.59;;;24.33;50.62
46942;BME280;32676;52.630;4.896;2023-06-26T12:08:54;100965.44;;;24.38;50.10
46942;BME280;32676;52.630;4.896;2023-06-26T12:11:23;100983.69;;;24.44;50.56
46942;BME280;32676;52.630;4.896;2023-06-26T12:13:51;101003.91;;;24.48;50.97
46942;BME280;32676;52.630;4.896;2023-06-26T12:16:18;100958.34;;;24.37;50.39
46942;BME280;32676;52.630;4.896;2023-06-26T12:18:45;100938.97;;;24.33;50.45
46942;BME280;32676;52.630;4.896;2023-06-26T12:21:43;100942.53;;;24.34;50.47
46942;BME280;32676;52.630;4.896;2023-06-26T12:24:15;100974.19;;;24.40;50.99
46942;BME280;32676;52.630;4.896;2023-06-26T12:26:43;100893.56;;;24.21;50.31
46942;BME280;32676;52.630;4.896;2023-06-26T12:29:11;100885.50;;;24.21;50.88
46942;BME280;32676;52.630;4.896;2023-06-26T12:31:40;100897.25;;;24.20;50.93
46942;BME280;32676;52.630;4.896;2023-06-26T12:34:09;100935.69;;;24.30;50.62
46942;BME280;32676;52.630;4.896;2023-06-26T12:36:39;100851.41;;;24.11;50.22
46942;BME280;32676;52.630;4.896;2023-06-26T12:39:05;100818.06;;;24.04;50.81
46942;BME280;32676;52.630;4.896;2023-06-26T12:41:44;100868.25;;;24.13;50.93
46942;BME280;32676;52.630;4.896;2023-06-26T12:44:16;100872.63;;;24.14;51.04
46942;BME280;32676;52.630;4.896;2023-06-26T12:46:43;100861.31;;;24.11;51.32
46942;BME280;32676;52.630;4.896;2023-06-26T12:49:12;100766.47;;;23.91;50.95
46942;BME280;32676;52.630;4.896;2023-06-26T12:51:38;100732.63;;;23.79;51.03
46942;BME280;32676;52.630;4.896;2023-06-26T12:54:06;100703.38;;;23.75;51.32
46942;BME280;32676;52.630;4.896;2023-06-26T12:56:32;100716.81;;;23.75;51.09